sensor_id;sensor_type;location;lat;lon;timestamp;P1;durP1;ratioP1;P2;durP2;ratioP2
64674;SDS011;51090;51.512;11.332;2023-02-21T00:02:32;15.45;;;6.15;;
64674;SDS011;51090;51.512;11.332;2023-02-21T00:05:17;16.33;;;7.00;;
64674;SDS011;51090;51.512;11.332;2023-02-21T00:08:01;19.25;;;7.85;;
64674;SDS011;51090;51.512;11.332;2023-02-21T00:10:46;18.48;;;6.88;;
64674;SDS011;51090;51.512;11.332;2023-02-21T00:13:30;15.60;;;6.68;;
64674;SDS011;51090;51.512;11.332;2023-02-21T00:16:17;16.83;;;6.75;;
64674;SDS011;51090;51.512;11.332;2023-02-21T00:19:04;14.82;;;6.50;;
64674;SDS011;51090;51.512;11.332;2023-02-21T00:21:48;19.52;;;8.68;;
64674;SDS011;51090;51.512;11.332;2023-02-21T00:24:33;14.82;;;7.15;;
64674;SDS011;51090;51.512;11.332;2023-02-21T00:27:17;16.02;;;7.28;;
64674;SDS011;51090;51.512;11.332;2023-02-21T00:30:02;17.15;;;8.13;;
64674;SDS011;51090;51.512;11.332;2023-02-21T00:32:47;20.75;;;8.35;;
64674;SDS011;51090;51.512;11.332;2023-02-21T00:35:32;16.33;;;7.55;;
64674;SDS011;51090;51.512;11.332;2023-02-21T00:38:16;13.77;;;5.88;;
64674;SDS011;51090;51.512;11.332;2023-02-21T00:41:00;17.35;;;7.93;;
64674;SDS011;51090;51.512;11.332;2023-02-21T00:43:45;15.98;;;7.38;;
64674;SDS011;51090;51.512;11.332;2023-02-21T00:46:29;17.30;;;8.18;;
64674;SDS011;51090;51.512;11.332;2023-02-21T00:49:13;18.25;;;8.45;;
64674;SDS011;51090;51.512;11.332;2023-02-21T00:51:57;18.05;;;7.75;;
64674;SDS011;51090;51.512;11.332;2023-02-21T00:54:42;15.88;;;6.93;;
64674;SDS011;51090;51.512;11.332;2023-02-21T00:57:27;16.63;;;7.47;;
64674;SDS011;51090;51.512;11.332;2023-02-21T01:00:15;13.57;;;6.03;;
64674;SDS011;51090;51.512;11.332;2023-02-21T01:03:04;15.77;;;6.68;;
64674;SDS011;51090;51.512;11.332;2023-02-21T01:05:49;19.20;;;7.50;;
64674;SDS011;51090;51.512;11.332;2023-02-21T01:08:35;17.35;;;6.47;;
64674;SDS011;51090;51.512;11.332;2023-02-21T01:11:20;12.57;;;6.15;;
64674;SDS011;51090;51.512;11.332;2023-02-21T01:14:05;13.95;;;6.07;;
64674;SDS011;51090;51.512;11.332;2023-02-21T01:16:50;15.55;;;6.82;;
64674;SDS011;51090;51.512;11.332;2023-02-21T01:19:34;15.73;;;6.63;;
64674;SDS011;51090;51.512;11.332;2023-02-21T01:22:19;14.00;;;6.07;;
64674;SDS011;51090;51.512;11.332;2023-02-21T01:25:03;16.23;;;7.68;;
64674;SDS011;51090;51.512;11.332;2023-02-21T01:27:50;11.55;;;5.70;;
64674;SDS011;51090;51.512;11.332;2023-02-21T01:30:37;15.38;;;7.10;;
64674;SDS011;51090;51.512;11.332;2023-02-21T01:33:21;16.02;;;7.57;;
64674;SDS011;51090;51.512;11.332;2023-02-21T01:36:05;14.23;;;6.05;;
64674;SDS011;51090;51.512;11.332;2023-02-21T01:38:50;13.63;;;6.85;;
64674;SDS011;51090;51.512;11.332;2023-02-21T01:41:34;16.58;;;6.28;;
64674;SDS011;51090;51.512;11.332;2023-02-21T01:47:23;14.93;;;6.03;;
64674;SDS011;51090;51.512;11.332;2023-02-21T01:50:29;14.25;;;6.15;;
64674;SDS011;51090;51.512;11.332;2023-02-21T01:53:23;14.90;;;6.65;;
64674;SDS011;51090;51.512;11.332;2023-02-21T01:56:10;12.50;;;5.78;;
64674;SDS011;51090;51.512;11.332;2023-02-21T01:58:56;13.85;;;6.30;;
64674;SDS011;51090;51.512;11.332;2023-02-21T02:05:17;12.73;;;5.28;;
64674;SDS011;51090;51.512;11.332;2023-02-21T02:08:03;13.07;;;5.28;;
64674;SDS011;51090;51.512;11.332;2023-02-21T02:10:49;12.02;;;6.18;;
64674;SDS011;51090;51.512;11.332;2023-02-21T02:14:17;14.98;;;6.35;;
64674;SDS011;51090;51.512;11.332;2023-02-21T02:17:11;14.25;;;6.68;;
64674;SDS011;51090;51.512;11.332;2023-02-21T02:20:15;14.65;;;7.18;;
64674;SDS011;51090;51.512;11.332;2023-02-21T02:23:39;15.13;;;6.63;;
64674;SDS011;51090;51.512;11.332;2023-02-21T02:26:59;13.57;;;6.07;;
64674;SDS011;51090;51.512;11.332;2023-02-21T02:33:28;18.63;;;8.02;;
64674;SDS011;51090;51.512;11.332;2023-02-21T02:36:11;14.73;;;6.88;;
64674;SDS011;51090;51.512;11.332;2023-02-21T02:38:50;18.83;;;8.77;;
64674;SDS011;51090;51.512;11.332;2023-02-21T02:41:40;15.85;;;7.32;;
64674;SDS011;51090;51.512;11.332;2023-02-21T02:44:25;15.23;;;7.53;;
64674;SDS011;51090;51.512;11.332;2023-02-21T02:47:16;17.83;;;7.60;;
64674;SDS011;51090;51.512;11.332;2023-02-21T02:49:55;13.80;;;6.15;;
64674;SDS011;51090;51.512;11.332;2023-02-21T02:52:23;16.20;;;6.40;;
64674;SDS011;51090;51.512;11.332;2023-02-21T02:54:58;16.83;;;7.28;;
64674;SDS011;51090;51.512;11.332;2023-02-21T02:57:28;18.67;;;8.30;;
64674;SDS011;51090;51.512;11.332;2023-02-21T03:00:05;15.35;;;7.13;;
64674;SDS011;51090;51.512;11.332;2023-02-21T03:09:11;15.57;;;7.75;;
64674;SDS011;51090;51.512;11.332;2023-02-21T03:12:01;17.50;;;7.75;;
64674;SDS011;51090;51.512;11.332;2023-02-21T03:14:29;15.00;;;7.20;;
64674;SDS011;51090;51.512;11.332;2023-02-21T03:17:11;15.23;;;7.28;;
64674;SDS011;51090;51.512;11.332;2023-02-21T03:19:41;18.38;;;7.68;;
64674;SDS011;51090;51.512;11.332;2023-02-21T03:22:12;16.00;;;7.18;;
64674;SDS011;51090;51.512;11.332;2023-02-21T03:24:44;15.23;;;6.90;;
64674;SDS011;51090;51.512;11.332;2023-02-21T03:27:12;15.43;;;6.47;;
64674;SDS011;51090;51.512;11.332;2023-02-21T03:29:40;17.45;;;7.43;;
64674;SDS011;51090;51.512;11.332;2023-02-21T03:35:17;17.45;;;8.05;;
64674;SDS011;51090;51.512;11.332;2023-02-21T03:37:49;16.17;;;7.38;;
64674;SDS011;51090;51.512;11.332;2023-02-21T03:42:55;18.23;;;8.27;;
64674;SDS011;51090;51.512;11.332;2023-02-21T03:45:23;15.48;;;7.35;;
64674;SDS011;51090;51.512;11.332;2023-02-21T03:47:49;18.45;;;8.00;;
64674;SDS011;51090;51.512;11.332;2023-02-21T03:50:16;15.90;;;7.20;;
64674;SDS011;51090;51.512;11.332;2023-02-21T03:52:42;15.02;;;7.28;;
64674;SDS011;51090;51.512;11.332;2023-02-21T03:55:08;13.52;;;6.72;;
64674;SDS011;51090;51.512;11.332;2023-02-21T03:57:35;18.58;;;8.38;;
64674;SDS011;51090;51.512;11.332;2023-02-21T04:00:01;15.63;;;7.88;;
64674;SDS011;51090;51.512;11.332;2023-02-21T04:02:27;15.73;;;7.10;;
64674;SDS011;51090;51.512;11.332;2023-02-21T04:04:53;14.80;;;6.80;;
64674;SDS011;51090;51.512;11.332;2023-02-21T04:07:19;16.27;;;7.95;;
64674;SDS011;51090;51.512;11.332;2023-02-21T04:09:46;13.02;;;6.53;;
64674;SDS011;51090;51.512;11.332;2023-02-21T04:12:13;16.75;;;7.38;;
64674;SDS011;51090;51.512;11.332;2023-02-21T04:14:39;16.65;;;6.80;;
64674;SDS011;51090;51.512;11.332;2023-02-21T04:17:05;16.60;;;8.13;;
64674;SDS011;51090;51.512;11.332;2023-02-21T04:19:31;17.25;;;7.82;;
64674;SDS011;51090;51.512;11.332;2023-02-21T04:21:58;15.43;;;7.50;;
64674;SDS011;51090;51.512;11.332;2023-02-21T04:24:24;15.18;;;6.53;;
64674;SDS011;51090;51.512;11.332;2023-02-21T04:26:50;14.27;;;6.88;;
64674;SDS011;51090;51.512;11.332;2023-02-21T04:29:16;15.85;;;8.52;;
64674;SDS011;51090;51.512;11.332;2023-02-21T04:31:42;15.55;;;6.75;;
64674;SDS011;51090;51.512;11.332;2023-02-21T04:34:09;15.85;;;6.93;;
64674;SDS011;51090;51.512;11.332;2023-02-21T04:36:35;16.75;;;7.68;;
64674;SDS011;51090;51.512;11.332;2023-02-21T04:39:04;15.57;;;6.75;;
64674;SDS011;51090;51.512;11.332;2023-02-21T04:41:31;17.73;;;7.63;;
64674;SDS011;51090;51.512;11.332;2023-02-21T04:43:57;17.75;;;8.27;;
64674;SDS011;51090;51.512;11.332;2023-02-21T04:46:23;14.68;;;7.05;;
64674;SDS011;51090;51.512;11.332;2023-02-21T04:48:49;14.80;;;7.43;;
64674;SDS011;51090;51.512;11.332;2023-02-21T04:51:16;18.95;;;8.32;;
64674;SDS011;51090;51.512;11.332;2023-02-21T04:53:46;17.17;;;7.68;;
64674;SDS011;51090;51.512;11.332;2023-02-21T04:56:13;16.10;;;7.35;;
64674;SDS011;51090;51.512;11.332;2023-02-21T04:58:40;19.20;;;8.82;;
64674;SDS011;51090;51.512;11.332;2023-02-21T05:01:06;18.63;;;8.82;;
64674;SDS011;51090;51.512;11.332;2023-02-21T05:03:34;18.98;;;8.68;;
64674;SDS011;51090;51.512;11.332;2023-02-21T05:06:01;17.35;;;8.10;;
64674;SDS011;51090;51.512;11.332;2023-02-21T05:08:27;20.33;;;9.38;;
64674;SDS011;51090;51.512;11.332;2023-02-21T05:10:53;20.48;;;8.65;;
64674;SDS011;51090;51.512;11.332;2023-02-21T05:13:19;19.70;;;9.68;;
64674;SDS011;51090;51.512;11.332;2023-02-21T05:15:46;19.70;;;9.02;;
64674;SDS011;51090;51.512;11.332;2023-02-21T05:18:13;20.20;;;9.30;;
64674;SDS011;51090;51.512;11.332;2023-02-21T05:20:49;18.67;;;8.82;;
64674;SDS011;51090;51.512;11.332;2023-02-21T05:23:16;17.27;;;8.20;;
64674;SDS011;51090;51.512;11.332;2023-02-21T05:25:58;21.87;;;10.23;;
64674;SDS011;51090;51.512;11.332;2023-02-21T05:28:30;23.75;;;11.40;;
64674;SDS011;51090;51.512;11.332;2023-02-21T05:30:56;21.70;;;9.88;;
64674;SDS011;51090;51.512;11.332;2023-02-21T05:33:22;19.92;;;10.18;;
64674;SDS011;51090;51.512;11.332;2023-02-21T05:35:49;24.33;;;10.63;;
64674;SDS011;51090;51.512;11.332;2023-02-21T05:38:16;24.48;;;11.38;;
64674;SDS011;51090;51.512;11.332;2023-02-21T05:40:45;24.20;;;11.88;;
64674;SDS011;51090;51.512;11.332;2023-02-21T05:43:11;31.40;;;14.05;;
64674;SDS011;51090;51.512;11.332;2023-02-21T05:45:37;24.30;;;11.77;;
64674;SDS011;51090;51.512;11.332;2023-02-21T05:48:03;23.83;;;11.77;;
64674;SDS011;51090;51.512;11.332;2023-02-21T05:50:29;21.13;;;10.63;;
64674;SDS011;51090;51.512;11.332;2023-02-21T05:52:56;27.70;;;11.65;;
64674;SDS011;51090;51.512;11.332;2023-02-21T05:55:23;27.27;;;11.93;;
64674;SDS011;51090;51.512;11.332;2023-02-21T05:57:49;25.23;;;11.15;;
64674;SDS011;51090;51.512;11.332;2023-02-21T06:00:22;31.20;;;12.68;;
64674;SDS011;51090;51.512;11.332;2023-02-21T06:02:52;30.42;;;12.57;;
64674;SDS011;51090;51.512;11.332;2023-02-21T06:05:19;24.73;;;10.57;;
64674;SDS011;51090;51.512;11.332;2023-02-21T06:07:45;27.23;;;12.52;;
64674;SDS011;51090;51.512;11.332;2023-02-21T06:10:12;24.25;;;10.93;;
64674;SDS011;51090;51.512;11.332;2023-02-21T06:12:42;25.02;;;11.48;;
64674;SDS011;51090;51.512;11.332;2023-02-21T06:15:08;23.60;;;11.10;;
64674;SDS011;51090;51.512;11.332;2023-02-21T06:17:37;23.83;;;11.10;;
64674;SDS011;51090;51.512;11.332;2023-02-21T06:20:11;23.70;;;10.68;;
64674;SDS011;51090;51.512;11.332;2023-02-21T06:22:39;27.17;;;12.73;;
64674;SDS011;51090;51.512;11.332;2023-02-21T06:25:05;26.60;;;11.85;;
64674;SDS011;51090;51.512;11.332;2023-02-21T06:27:31;27.73;;;11.55;;
64674;SDS011;51090;51.512;11.332;2023-02-21T06:29:57;25.05;;;11.98;;
64674;SDS011;51090;51.512;11.332;2023-02-21T06:32:23;22.40;;;10.20;;
64674;SDS011;51090;51.512;11.332;2023-02-21T06:34:48;24.35;;;9.57;;
64674;SDS011;51090;51.512;11.332;2023-02-21T06:37:14;22.52;;;10.48;;
64674;SDS011;51090;51.512;11.332;2023-02-21T06:39:41;20.50;;;8.80;;
64674;SDS011;51090;51.512;11.332;2023-02-21T06:42:10;22.58;;;8.80;;
64674;SDS011;51090;51.512;11.332;2023-02-21T06:44:44;22.73;;;9.52;;
64674;SDS011;51090;51.512;11.332;2023-02-21T06:47:12;22.65;;;9.50;;
64674;SDS011;51090;51.512;11.332;2023-02-21T06:49:38;21.25;;;8.57;;
64674;SDS011;51090;51.512;11.332;2023-02-21T06:52:05;21.25;;;9.93;;
64674;SDS011;51090;51.512;11.332;2023-02-21T06:54:31;19.73;;;8.95;;
64674;SDS011;51090;51.512;11.332;2023-02-21T06:56:57;17.58;;;7.15;;
64674;SDS011;51090;51.512;11.332;2023-02-21T06:59:24;16.50;;;6.80;;
64674;SDS011;51090;51.512;11.332;2023-02-21T07:01:50;18.23;;;8.13;;
64674;SDS011;51090;51.512;11.332;2023-02-21T07:04:15;16.35;;;7.13;;
64674;SDS011;51090;51.512;11.332;2023-02-21T07:06:41;17.92;;;7.93;;
64674;SDS011;51090;51.512;11.332;2023-02-21T07:09:07;16.42;;;6.78;;
64674;SDS011;51090;51.512;11.332;2023-02-21T07:11:33;18.70;;;8.43;;
64674;SDS011;51090;51.512;11.332;2023-02-21T07:13:59;16.33;;;6.95;;
64674;SDS011;51090;51.512;11.332;2023-02-21T07:16:25;13.95;;;6.78;;
64674;SDS011;51090;51.512;11.332;2023-02-21T07:18:52;19.60;;;8.85;;
64674;SDS011;51090;51.512;11.332;2023-02-21T07:21:18;19.73;;;8.15;;
64674;SDS011;51090;51.512;11.332;2023-02-21T07:23:45;19.23;;;7.97;;
64674;SDS011;51090;51.512;11.332;2023-02-21T07:26:12;16.10;;;6.97;;
64674;SDS011;51090;51.512;11.332;2023-02-21T07:28:39;16.90;;;7.32;;
64674;SDS011;51090;51.512;11.332;2023-02-21T07:31:05;18.98;;;8.68;;
64674;SDS011;51090;51.512;11.332;2023-02-21T07:33:31;17.52;;;7.43;;
64674;SDS011;51090;51.512;11.332;2023-02-21T07:35:58;18.52;;;7.82;;
64674;SDS011;51090;51.512;11.332;2023-02-21T07:38:24;17.92;;;7.30;;
64674;SDS011;51090;51.512;11.332;2023-02-21T07:40:53;17.45;;;7.38;;
64674;SDS011;51090;51.512;11.332;2023-02-21T07:43:21;16.27;;;7.20;;
64674;SDS011;51090;51.512;11.332;2023-02-21T07:45:48;18.52;;;8.50;;
64674;SDS011;51090;51.512;11.332;2023-02-21T07:48:13;16.45;;;7.55;;
64674;SDS011;51090;51.512;11.332;2023-02-21T07:50:40;17.60;;;7.75;;
64674;SDS011;51090;51.512;11.332;2023-02-21T07:53:06;22.55;;;9.50;;
64674;SDS011;51090;51.512;11.332;2023-02-21T07:55:32;18.48;;;8.90;;
64674;SDS011;51090;51.512;11.332;2023-02-21T07:57:57;31.35;;;13.27;;
64674;SDS011;51090;51.512;11.332;2023-02-21T08:00:23;22.83;;;10.38;;
64674;SDS011;51090;51.512;11.332;2023-02-21T08:02:50;21.15;;;9.63;;
64674;SDS011;51090;51.512;11.332;2023-02-21T08:05:17;21.48;;;9.38;;
64674;SDS011;51090;51.512;11.332;2023-02-21T08:07:44;26.15;;;11.45;;
64674;SDS011;51090;51.512;11.332;2023-02-21T08:10:11;29.20;;;13.82;;
64674;SDS011;51090;51.512;11.332;2023-02-21T08:12:42;21.77;;;9.83;;
64674;SDS011;51090;51.512;11.332;2023-02-21T08:15:08;18.83;;;8.70;;
64674;SDS011;51090;51.512;11.332;2023-02-21T08:17:33;20.77;;;8.98;;
64674;SDS011;51090;51.512;11.332;2023-02-21T08:19:59;20.17;;;8.65;;
64674;SDS011;51090;51.512;11.332;2023-02-21T08:22:25;17.95;;;8.20;;
64674;SDS011;51090;51.512;11.332;2023-02-21T08:24:51;18.52;;;8.80;;
64674;SDS011;51090;51.512;11.332;2023-02-21T08:27:17;21.30;;;9.18;;
64674;SDS011;51090;51.512;11.332;2023-02-21T08:29:43;24.35;;;9.77;;
64674;SDS011;51090;51.512;11.332;2023-02-21T08:32:09;22.83;;;11.70;;
64674;SDS011;51090;51.512;11.332;2023-02-21T08:34:35;20.80;;;9.07;;
64674;SDS011;51090;51.512;11.332;2023-02-21T08:37:01;17.52;;;8.18;;
64674;SDS011;51090;51.512;11.332;2023-02-21T08:39:30;20.15;;;8.52;;
64674;SDS011;51090;51.512;11.332;2023-02-21T08:41:56;20.75;;;9.23;;
64674;SDS011;51090;51.512;11.332;2023-02-21T08:44:22;55.47;;;26.90;;
64674;SDS011;51090;51.512;11.332;2023-02-21T08:46:47;54.60;;;25.77;;
64674;SDS011;51090;51.512;11.332;2023-02-21T08:49:13;27.83;;;13.60;;
64674;SDS011;51090;51.512;11.332;2023-02-21T08:51:40;31.38;;;15.30;;
64674;SDS011;51090;51.512;11.332;2023-02-21T08:54:06;36.55;;;17.65;;
64674;SDS011;51090;51.512;11.332;2023-02-21T08:56:32;24.95;;;12.02;;
64674;SDS011;51090;51.512;11.332;2023-02-21T08:58:58;22.10;;;11.10;;
64674;SDS011;51090;51.512;11.332;2023-02-21T09:01:29;21.88;;;10.20;;
64674;SDS011;51090;51.512;11.332;2023-02-21T09:03:57;20.08;;;9.48;;
64674;SDS011;51090;51.512;11.332;2023-02-21T09:06:23;20.30;;;9.38;;
64674;SDS011;51090;51.512;11.332;2023-02-21T09:08:49;21.58;;;9.52;;
64674;SDS011;51090;51.512;11.332;2023-02-21T09:11:14;20.80;;;9.60;;
64674;SDS011;51090;51.512;11.332;2023-02-21T09:13:40;35.28;;;13.98;;
64674;SDS011;51090;51.512;11.332;2023-02-21T09:16:06;64.68;;;25.70;;
64674;SDS011;51090;51.512;11.332;2023-02-21T09:18:32;31.75;;;14.43;;
64674;SDS011;51090;51.512;11.332;2023-02-21T09:20:57;20.17;;;9.27;;
64674;SDS011;51090;51.512;11.332;2023-02-21T09:23:24;24.17;;;10.80;;
64674;SDS011;51090;51.512;11.332;2023-02-21T09:25:53;27.83;;;12.00;;
64674;SDS011;51090;51.512;11.332;2023-02-21T09:28:19;30.30;;;13.57;;
64674;SDS011;51090;51.512;11.332;2023-02-21T09:30:46;23.67;;;11.95;;
64674;SDS011;51090;51.512;11.332;2023-02-21T09:33:14;22.35;;;10.40;;
64674;SDS011;51090;51.512;11.332;2023-02-21T09:35:40;21.67;;;9.32;;
64674;SDS011;51090;51.512;11.332;2023-02-21T09:38:06;23.77;;;11.48;;
64674;SDS011;51090;51.512;11.332;2023-02-21T09:40:39;30.98;;;14.57;;
64674;SDS011;51090;51.512;11.332;2023-02-21T09:43:24;26.98;;;11.93;;
64674;SDS011;51090;51.512;11.332;2023-02-21T09:45:59;24.88;;;9.27;;
64674;SDS011;51090;51.512;11.332;2023-02-21T09:48:29;23.02;;;9.38;;
64674;SDS011;51090;51.512;11.332;2023-02-21T09:50:56;37.95;;;17.02;;
64674;SDS011;51090;51.512;11.332;2023-02-21T09:53:29;20.20;;;8.85;;
64674;SDS011;51090;51.512;11.332;2023-02-21T09:56:00;18.02;;;8.45;;
64674;SDS011;51090;51.512;11.332;2023-02-21T09:58:49;19.77;;;8.50;;
64674;SDS011;51090;51.512;11.332;2023-02-21T10:01:21;20.05;;;8.27;;
64674;SDS011;51090;51.512;11.332;2023-02-21T10:04:22;19.02;;;8.65;;
64674;SDS011;51090;51.512;11.332;2023-02-21T10:10:00;18.45;;;7.60;;
64674;SDS011;51090;51.512;11.332;2023-02-21T10:12:44;19.88;;;8.70;;
64674;SDS011;51090;51.512;11.332;2023-02-21T10:21:29;19.45;;;8.30;;
64674;SDS011;51090;51.512;11.332;2023-02-21T10:24:09;18.15;;;7.85;;
64674;SDS011;51090;51.512;11.332;2023-02-21T10:26:51;18.55;;;8.02;;
64674;SDS011;51090;51.512;11.332;2023-02-21T10:32:25;17.23;;;6.88;;
64674;SDS011;51090;51.512;11.332;2023-02-21T10:34:51;18.02;;;8.35;;
64674;SDS011;51090;51.512;11.332;2023-02-21T10:37:43;15.23;;;6.60;;
64674;SDS011;51090;51.512;11.332;2023-02-21T10:40:26;16.73;;;6.75;;
64674;SDS011;51090;51.512;11.332;2023-02-21T10:43:09;16.92;;;6.75;;
64674;SDS011;51090;51.512;11.332;2023-02-21T10:46:00;14.68;;;6.40;;
64674;SDS011;51090;51.512;11.332;2023-02-21T10:52:04;14.85;;;6.28;;
64674;SDS011;51090;51.512;11.332;2023-02-21T10:54:35;14.18;;;6.05;;
64674;SDS011;51090;51.512;11.332;2023-02-21T10:57:01;13.52;;;5.25;;
64674;SDS011;51090;51.512;11.332;2023-02-21T10:59:35;14.13;;;5.88;;
64674;SDS011;51090;51.512;11.332;2023-02-21T11:05:11;14.65;;;6.32;;
64674;SDS011;51090;51.512;11.332;2023-02-21T11:08:04;14.23;;;5.93;;
64674;SDS011;51090;51.512;11.332;2023-02-21T11:13:14;13.63;;;6.03;;
64674;SDS011;51090;51.512;11.332;2023-02-21T11:15:44;13.30;;;5.82;;
64674;SDS011;51090;51.512;11.332;2023-02-21T11:18:12;13.80;;;5.53;;
64674;SDS011;51090;51.512;11.332;2023-02-21T11:20:43;15.48;;;6.20;;
64674;SDS011;51090;51.512;11.332;2023-02-21T11:25:50;11.52;;;5.43;;
64674;SDS011;51090;51.512;11.332;2023-02-21T11:28:42;11.63;;;4.90;;
64674;SDS011;51090;51.512;11.332;2023-02-21T11:33:55;10.88;;;4.55;;
64674;SDS011;51090;51.512;11.332;2023-02-21T11:36:29;10.48;;;4.00;;
64674;SDS011;51090;51.512;11.332;2023-02-21T11:39:15;12.40;;;4.97;;
64674;SDS011;51090;51.512;11.332;2023-02-21T11:41:48;9.55;;;3.42;;
64674;SDS011;51090;51.512;11.332;2023-02-21T11:44:32;9.73;;;4.30;;
64674;SDS011;51090;51.512;11.332;2023-02-21T11:52:22;8.48;;;3.60;;
64674;SDS011;51090;51.512;11.332;2023-02-21T11:55:11;9.82;;;3.83;;
64674;SDS011;51090;51.512;11.332;2023-02-21T11:57:46;8.05;;;3.58;;
64674;SDS011;51090;51.512;11.332;2023-02-21T12:03:29;7.97;;;3.30;;
64674;SDS011;51090;51.512;11.332;2023-02-21T12:06:50;12.20;;;3.17;;
64674;SDS011;51090;51.512;11.332;2023-02-21T12:12:17;6.75;;;2.67;;
64674;SDS011;51090;51.512;11.332;2023-02-21T12:15:00;5.93;;;2.20;;
64674;SDS011;51090;51.512;11.332;2023-02-21T12:20:59;4.80;;;2.20;;
64674;SDS011;51090;51.512;11.332;2023-02-21T12:38:24;3.80;;;2.10;;
64674;SDS011;51090;51.512;11.332;2023-02-21T12:41:28;7.15;;;2.45;;
64674;SDS011;51090;51.512;11.332;2023-02-21T12:47:20;6.93;;;2.20;;
64674;SDS011;51090;51.512;11.332;2023-02-21T12:50:00;5.35;;;2.20;;
64674;SDS011;51090;51.512;11.332;2023-02-21T12:55:35;5.40;;;2.25;;
64674;SDS011;51090;51.512;11.332;2023-02-21T13:00:46;8.23;;;3.28;;
64674;SDS011;51090;51.512;11.332;2023-02-21T13:03:51;5.15;;;2.45;;
64674;SDS011;51090;51.512;11.332;2023-02-21T13:07:13;5.70;;;2.00;;
64674;SDS011;51090;51.512;11.332;2023-02-21T13:12:27;5.20;;;1.92;;
64674;SDS011;51090;51.512;11.332;2023-02-21T13:20:44;4.75;;;1.55;;
64674;SDS011;51090;51.512;11.332;2023-02-21T13:23:20;3.95;;;1.40;;
64674;SDS011;51090;51.512;11.332;2023-02-21T13:29:21;4.75;;;1.70;;
64674;SDS011;51090;51.512;11.332;2023-02-21T13:32:06;3.92;;;1.70;;
64674;SDS011;51090;51.512;11.332;2023-02-21T13:34:44;3.92;;;1.70;;
64674;SDS011;51090;51.512;11.332;2023-02-21T13:37:27;3.33;;;1.30;;
64674;SDS011;51090;51.512;11.332;2023-02-21T13:39:57;3.53;;;1.25;;
64674;SDS011;51090;51.512;11.332;2023-02-21T13:43:01;5.03;;;1.50;;
64674;SDS011;51090;51.512;11.332;2023-02-21T13:45:32;4.03;;;1.65;;
64674;SDS011;51090;51.512;11.332;2023-02-21T13:58:38;2.17;;;1.10;;
64674;SDS011;51090;51.512;11.332;2023-02-21T14:04:48;1.73;;;0.85;;
64674;SDS011;51090;51.512;11.332;2023-02-21T14:07:36;2.55;;;1.10;;
64674;SDS011;51090;51.512;11.332;2023-02-21T14:10:13;1.85;;;0.90;;
64674;SDS011;51090;51.512;11.332;2023-02-21T14:12:58;3.38;;;1.15;;
64674;SDS011;51090;51.512;11.332;2023-02-21T14:15:37;2.85;;;1.20;;
64674;SDS011;51090;51.512;11.332;2023-02-21T14:18:17;2.47;;;1.10;;
64674;SDS011;51090;51.512;11.332;2023-02-21T14:20:57;1.98;;;0.90;;
64674;SDS011;51090;51.512;11.332;2023-02-21T14:23:36;1.00;;;0.50;;
64674;SDS011;51090;51.512;11.332;2023-02-21T14:26:35;0.95;;;0.50;;
64674;SDS011;51090;51.512;11.332;2023-02-21T14:34:38;1.67;;;0.60;;
64674;SDS011;51090;51.512;11.332;2023-02-21T14:37:12;2.13;;;0.60;;
64674;SDS011;51090;51.512;11.332;2023-02-21T14:55:38;1.58;;;0.70;;
64674;SDS011;51090;51.512;11.332;2023-02-21T14:58:37;3.05;;;0.80;;
64674;SDS011;51090;51.512;11.332;2023-02-21T15:04:01;4.93;;;1.02;;
64674;SDS011;51090;51.512;11.332;2023-02-21T15:06:51;2.60;;;0.85;;
64674;SDS011;51090;51.512;11.332;2023-02-21T15:09:42;2.20;;;0.82;;
64674;SDS011;51090;51.512;11.332;2023-02-21T15:12:13;2.50;;;0.95;;
64674;SDS011;51090;51.512;11.332;2023-02-21T15:14:51;2.45;;;1.00;;
64674;SDS011;51090;51.512;11.332;2023-02-21T15:17:21;2.55;;;1.00;;
64674;SDS011;51090;51.512;11.332;2023-02-21T15:22:41;3.97;;;1.20;;
64674;SDS011;51090;51.512;11.332;2023-02-21T15:27:34;1.83;;;0.90;;
64674;SDS011;51090;51.512;11.332;2023-02-21T15:30:18;4.40;;;1.70;;
64674;SDS011;51090;51.512;11.332;2023-02-21T15:32:55;3.60;;;1.40;;
64674;SDS011;51090;51.512;11.332;2023-02-21T15:35:35;2.67;;;1.23;;
64674;SDS011;51090;51.512;11.332;2023-02-21T15:38:10;3.85;;;1.20;;
64674;SDS011;51090;51.512;11.332;2023-02-21T15:40:54;2.97;;;1.20;;
64674;SDS011;51090;51.512;11.332;2023-02-21T15:46:45;2.95;;;1.20;;
64674;SDS011;51090;51.512;11.332;2023-02-21T15:52:26;3.80;;;1.52;;
64674;SDS011;51090;51.512;11.332;2023-02-21T15:57:56;3.20;;;1.30;;
64674;SDS011;51090;51.512;11.332;2023-02-21T16:03:24;3.25;;;1.40;;
64674;SDS011;51090;51.512;11.332;2023-02-21T16:05:53;3.58;;;1.63;;
64674;SDS011;51090;51.512;11.332;2023-02-21T16:08:33;4.18;;;1.65;;
64674;SDS011;51090;51.512;11.332;2023-02-21T16:11:03;4.07;;;1.58;;
64674;SDS011;51090;51.512;11.332;2023-02-21T16:13:38;5.43;;;1.63;;
64674;SDS011;51090;51.512;11.332;2023-02-21T16:16:05;4.50;;;2.00;;
64674;SDS011;51090;51.512;11.332;2023-02-21T16:18:32;4.60;;;1.60;;
64674;SDS011;51090;51.512;11.332;2023-02-21T16:21:04;4.40;;;1.60;;
64674;SDS011;51090;51.512;11.332;2023-02-21T16:23:33;3.03;;;1.23;;
64674;SDS011;51090;51.512;11.332;2023-02-21T16:28:40;5.03;;;1.60;;
64674;SDS011;51090;51.512;11.332;2023-02-21T16:31:09;3.85;;;1.90;;
64674;SDS011;51090;51.512;11.332;2023-02-21T16:33:53;4.45;;;1.92;;
64674;SDS011;51090;51.512;11.332;2023-02-21T16:36:22;3.60;;;1.63;;
64674;SDS011;51090;51.512;11.332;2023-02-21T16:38:56;3.35;;;1.48;;
64674;SDS011;51090;51.512;11.332;2023-02-21T16:41:25;4.45;;;1.75;;
64674;SDS011;51090;51.512;11.332;2023-02-21T16:43:51;4.53;;;1.67;;
64674;SDS011;51090;51.512;11.332;2023-02-21T16:46:24;4.07;;;1.70;;
64674;SDS011;51090;51.512;11.332;2023-02-21T16:48:52;4.95;;;1.88;;
64674;SDS011;51090;51.512;11.332;2023-02-21T16:51:19;4.85;;;1.98;;
64674;SDS011;51090;51.512;11.332;2023-02-21T16:53:45;4.70;;;1.73;;
64674;SDS011;51090;51.512;11.332;2023-02-21T16:56:15;4.35;;;2.10;;
64674;SDS011;51090;51.512;11.332;2023-02-21T16:58:41;5.55;;;1.95;;
64674;SDS011;51090;51.512;11.332;2023-02-21T17:01:17;4.18;;;1.67;;
64674;SDS011;51090;51.512;11.332;2023-02-21T17:03:50;4.95;;;1.73;;
64674;SDS011;51090;51.512;11.332;2023-02-21T17:06:18;5.20;;;2.00;;
64674;SDS011;51090;51.512;11.332;2023-02-21T17:08:47;9.02;;;2.75;;
64674;SDS011;51090;51.512;11.332;2023-02-21T17:11:13;11.25;;;3.83;;
64674;SDS011;51090;51.512;11.332;2023-02-21T17:13:39;11.85;;;3.85;;
64674;SDS011;51090;51.512;11.332;2023-02-21T17:16:05;9.43;;;3.53;;
64674;SDS011;51090;51.512;11.332;2023-02-21T17:18:31;8.40;;;3.10;;
64674;SDS011;51090;51.512;11.332;2023-02-21T17:20:57;5.00;;;2.13;;
64674;SDS011;51090;51.512;11.332;2023-02-21T17:23:24;5.75;;;1.92;;
64674;SDS011;51090;51.512;11.332;2023-02-21T17:25:50;7.65;;;2.53;;
64674;SDS011;51090;51.512;11.332;2023-02-21T17:28:16;5.72;;;2.00;;
64674;SDS011;51090;51.512;11.332;2023-02-21T17:30:42;4.72;;;1.75;;
64674;SDS011;51090;51.512;11.332;2023-02-21T17:33:07;4.15;;;1.60;;
64674;SDS011;51090;51.512;11.332;2023-02-21T17:35:34;5.57;;;1.90;;
64674;SDS011;51090;51.512;11.332;2023-02-21T17:38:01;3.58;;;1.85;;
64674;SDS011;51090;51.512;11.332;2023-02-21T17:40:28;4.38;;;1.70;;
64674;SDS011;51090;51.512;11.332;2023-02-21T17:42:55;4.35;;;1.70;;